Time;durP1;ratioP1;P1;durP2;ratioP2;P2;SDS_P1;SDS_P2;PMS_P1;PMS_P2;Temp;Humidity;BMP_temperature;BMP_pressure;BME280_temperature;BME280_humidity;BME280_pressure;Samples;Min_cycle;Max_cycle;Signal;HPM_P1;HPM_P2
2021/12/24 00:00:16;;;;;;;;;7.80;7.00;;;;;7.97;86.08;98695.47;5089670;28;8842;-58
2021/12/24 00:02:44;;;;;;;;;9.60;9.00;;;;;7.98;86.16;98694.50;5090957;28;8988;-59
2021/12/24 00:05:12;;;;;;;;;10.80;8.60;;;;;8.00;85.95;98684.59;5090156;28;9874;-58
2021/12/24 00:07:42;;;;;;;;;10.40;9.20;;;;;8.01;85.86;98691.59;5089381;28;8911;-60
2021/12/24 00:10:09;;;;;;;;;7.40;7.20;;;;;8.02;86.18;98687.09;5089639;28;8861;-58
2021/12/24 00:12:42;;;;;;;;;9.00;8.20;;;;;8.03;86.07;98694.06;5089938;28;8952;-58
2021/12/24 00:15:25;;;;;;;;;11.80;11.60;;;;;8.05;85.97;98677.06;5087762;28;8837;-58
2021/12/24 00:18:00;;;;;;;;;12.80;12.20;;;;;8.06;86.41;98676.09;5072895;28;8840;-59
2021/12/24 00:21:17;;;;;;;;;14.80;13.20;;;;;8.09;85.93;98670.53;5073500;28;8874;-59
2021/12/24 00:37:08;;;;;;;;;10.40;10.00;;;;;8.16;86.46;98666.34;5073547;28;8856;-60
2021/12/24 00:39:42;;;;;;;;;9.00;9.00;;;;;8.17;86.38;98654.78;5074065;28;8862;-59
2021/12/24 00:42:11;;;;;;;;;7.20;6.40;;;;;8.18;86.39;98668.84;5073078;28;8844;-59
2021/12/24 00:44:39;;;;;;;;;12.20;11.20;;;;;8.19;86.32;98660.78;5074305;28;8882;-59
2021/12/24 00:47:07;;;;;;;;;9.50;9.50;;;;;8.21;86.51;98655.38;5094214;28;8856;-59
2021/12/24 00:49:35;;;;;;;;;15.80;11.00;;;;;8.23;86.72;98656.91;5093653;28;8864;-59
2021/12/24 00:52:19;;;;;;;;;11.50;8.50;;;;;8.23;86.60;98659.56;5093353;28;8822;-59
2021/12/24 00:55:06;;;;;;;;;11.20;9.60;;;;;8.25;86.86;98665.56;5094129;28;8881;-59
2021/12/24 00:57:34;;;;;;;;;7.50;6.75;;;;;8.26;86.60;98661.91;5092154;28;8956;-59
2021/12/24 01:00:01;;;;;;;;;6.50;5.75;;;;;8.27;86.66;98674.19;5092803;28;8852;-59
2021/12/24 01:02:29;;;;;;;;;6.00;4.50;;;;;8.28;86.66;98652.00;5093612;28;8899;-58
2021/12/24 01:04:57;;;;;;;;;8.00;6.50;;;;;8.31;86.62;98659.69;5093642;28;8850;-58
2021/12/24 01:07:24;;;;;;;;;9.25;9.00;;;;;8.32;86.45;98663.16;5093459;28;8850;-59
2021/12/24 01:09:52;;;;;;;;;6.25;5.50;;;;;8.31;86.85;98659.69;5093078;28;8845;-58
2021/12/24 01:12:20;;;;;;;;;7.00;6.00;;;;;8.34;87.05;98667.38;5093369;28;8834;-60
2021/12/24 01:14:48;;;;;;;;;12.00;9.60;;;;;8.35;86.68;98658.44;5094400;28;8841;-58
2021/12/24 01:17:28;;;;;;;;;7.00;6.00;;;;;8.36;87.05;98656.63;5093418;28;8976;-59
2021/12/24 01:20:02;;;;;;;;;8.00;7.00;;;;;8.37;87.21;98661.75;5094225;28;9770;-59
2021/12/24 01:23:16;;;;;;;;;9.25;7.00;;;;;8.39;86.90;98662.50;5093634;28;8849;-59
2021/12/24 01:25:41;;;;;;;;;7.50;7.25;;;;;8.39;86.85;98643.91;5093505;28;8906;-58
2021/12/24 01:39:23;;;;;;;;;7.50;6.00;;;;;8.40;86.76;98650.03;5093681;28;9529;-59
2021/12/24 01:44:36;;;;;;;;;6.50;5.00;;;;;8.40;87.20;98640.28;5092849;28;8852;-59
2021/12/24 01:47:03;;;;;;;;;4.00;4.00;;;;;8.40;87.23;98628.81;5093555;28;8840;-59
2021/12/24 01:49:31;;;;;;;;;3.75;3.00;;;;;8.41;87.04;98630.50;5091534;28;8834;-59
2021/12/24 01:51:59;;;;;;;;;6.50;3.50;;;;;8.42;86.96;98632.16;5093143;28;8850;-59
2021/12/24 01:54:27;;;;;;;;;7.00;6.00;;;;;8.42;86.96;98626.84;5093055;28;8996;-59
2021/12/24 01:56:54;;;;;;;;;4.00;4.00;;;;;8.42;87.09;98626.84;5092996;28;8838;-59
2021/12/24 01:59:22;;;;;;;;;5.00;5.00;;;;;8.43;87.18;98632.03;5092832;28;8834;-59
2021/12/24 02:01:50;;;;;;;;;7.00;7.00;;;;;8.45;87.38;98626.59;5092706;28;9500;-60
2021/12/24 02:04:18;;;;;;;;;3.25;3.25;;;;;8.46;87.04;98634.44;5093791;28;8830;-60
2021/12/24 02:06:46;;;;;;;;;5.00;5.00;;;;;8.47;86.91;98630.78;5092307;28;9799;-60
2021/12/24 02:09:13;;;;;;;;;1.00;1.00;;;;;8.47;87.39;98622.84;5092197;28;8838;-60
2021/12/24 02:11:41;;;;;;;;;4.50;3.25;;;;;8.48;87.33;98615.69;5092906;28;8968;-60
2021/12/24 02:14:09;;;;;;;;;6.00;5.00;;;;;8.49;87.82;98615.56;5092347;28;8956;-60
2021/12/24 02:16:50;;;;;;;;;7.50;7.00;;;;;8.49;87.25;98612.91;5093443;28;8850;-60
2021/12/24 02:30:29;;;;;;;;;6.75;6.00;;;;;8.53;87.88;98602.84;5091777;28;8856;-60
2021/12/24 02:32:57;;;;;;;;;5.33;5.33;;;;;8.53;87.67;98597.53;5091427;28;8838;-60
2021/12/24 02:35:25;;;;;;;;;4.50;4.50;;;;;8.53;87.79;98597.53;5092481;28;8858;-60
2021/12/24 02:37:52;;;;;;;;;5.75;5.00;;;;;8.54;87.31;98600.06;5091902;28;8876;-60
2021/12/24 02:40:20;;;;;;;;;6.25;6.00;;;;;8.56;87.58;98595.44;5092255;28;8818;-60
2021/12/24 02:42:52;;;;;;;;;9.00;7.00;;;;;8.56;87.63;98594.59;5093037;28;8834;-60
2021/12/24 02:45:19;;;;;;;;;5.50;4.00;;;;;8.57;87.84;98596.25;5092298;28;8837;-60
2021/12/24 02:48:11;;;;;;;;;8.50;7.00;;;;;8.58;87.90;98592.66;5092952;28;8853;-60
2021/12/24 02:56:10;;;;;;;;;8.50;7.00;;;;;8.60;87.85;98588.84;5091815;28;9537;-60
2021/12/24 02:58:38;;;;;;;;;5.00;4.00;;;;;8.62;87.90;98596.69;5092155;28;8837;-60
2021/12/24 03:01:05;;;;;;;;;8.50;7.25;;;;;8.61;87.81;98593.22;5091022;28;8858;-61
2021/12/24 03:03:33;;;;;;;;;6.00;6.00;;;;;8.63;87.59;98585.94;5092279;28;8838;-60
2021/12/24 03:06:01;;;;;;;;;6.00;5.00;;;;;8.64;87.38;98581.44;5091471;28;8858;-62
2021/12/24 03:08:29;;;;;;;;;10.00;8.25;;;;;8.66;87.76;98585.63;5092418;28;8841;-60
2021/12/24 03:10:58;;;;;;;;;5.25;4.75;;;;;8.68;87.46;98583.66;5092439;28;8826;-62
2021/12/24 03:13:26;;;;;;;;;6.50;5.00;;;;;8.70;87.85;98584.38;5091971;28;8964;-61
2021/12/24 03:15:54;;;;;;;;;3.25;1.00;;;;;8.71;87.95;98570.13;5092153;28;8862;-61
2021/12/24 03:18:26;;;;;;;;;5.00;4.25;;;;;8.73;87.88;98575.31;5091418;28;8838;-61
2021/12/24 03:21:01;;;;;;;;;1.00;1.00;;;;;8.73;87.84;98573.47;5092317;28;8845;-61
2021/12/24 03:23:38;;;;;;;;;11.00;9.75;;;;;8.73;87.45;98568.16;5091018;28;9492;-61
2021/12/24 03:26:06;;;;;;;;;4.75;3.50;;;;;8.73;88.18;98581.44;5092138;28;8993;-61
2021/12/24 03:28:34;;;;;;;;;10.00;8.50;;;;;8.73;87.62;98578.78;5091929;28;8842;-61
2021/12/24 03:31:02;;;;;;;;;13.25;10.75;;;;;8.73;87.58;98570.00;5091301;28;8848;-61
2021/12/24 03:33:29;;;;;;;;;9.00;8.00;;;;;8.74;87.75;98580.44;5091311;28;8934;-61
2021/12/24 03:35:57;;;;;;;;;7.00;7.00;;;;;8.75;87.90;98570.69;5091653;28;8857;-61
2021/12/24 03:38:25;;;;;;;;;7.00;4.50;;;;;8.75;88.05;98576.81;5092095;28;9507;-61
2021/12/24 03:40:52;;;;;;;;;8.00;7.50;;;;;8.75;88.14;98574.16;5092110;28;8834;-61
2021/12/24 03:43:20;;;;;;;;;8.00;8.00;;;;;8.75;87.80;98560.06;5091315;28;8960;-61
2021/12/24 03:45:58;;;;;;;;;4.25;3.25;;;;;8.75;88.17;98560.06;5092329;28;8840;-62
2021/12/24 03:48:38;;;;;;;;;13.50;9.00;;;;;8.75;88.21;98566.19;5090541;28;8857;-61
2021/12/24 03:51:22;;;;;;;;;9.25;7.50;;;;;8.75;88.34;98570.69;5090389;28;8853;-61
2021/12/24 03:56:36;;;;;;;;;4.50;3.50;;;;;8.77;88.58;98572.22;5091514;28;8872;-61
2021/12/24 03:59:03;;;;;;;;;6.00;4.00;;;;;8.76;88.07;98573.19;5089569;28;8833;-62
2021/12/24 04:01:31;;;;;;;;;3.00;3.00;;;;;8.77;88.61;98574.03;5091262;28;8846;-61
2021/12/24 04:03:59;;;;;;;;;6.00;6.00;;;;;8.78;88.67;98576.53;5091160;28;8871;-62
2021/12/24 04:06:27;;;;;;;;;3.00;3.00;;;;;8.79;88.33;98587.97;5089977;28;8877;-61
2021/12/24 04:08:54;;;;;;;;;7.50;6.50;;;;;8.79;87.97;98582.66;5090642;28;8854;-61
2021/12/24 04:11:22;;;;;;;;;11.50;8.50;;;;;8.79;88.18;98574.69;5091114;28;8834;-61
2021/12/24 04:13:50;;;;;;;;;6.00;6.00;;;;;8.80;88.34;98584.38;5090624;28;8818;-61
2021/12/24 04:16:18;;;;;;;;;10.00;8.00;;;;;8.80;88.06;98579.88;5089339;28;8985;-61
2021/12/24 04:18:52;;;;;;;;;7.00;7.00;;;;;8.80;88.13;98574.56;5091046;28;8842;-61
2021/12/24 04:26:56;;;;;;;;;9.75;9.50;;;;;8.80;88.37;98585.19;5090383;28;9688;-61
2021/12/24 04:29:27;;;;;;;;;7.25;6.00;;;;;8.80;87.98;98589.69;5091693;28;8841;-62
2021/12/24 04:32:06;;;;;;;;;6.00;6.00;;;;;8.81;88.34;98586.03;5090205;28;8856;-62
2021/12/24 04:34:35;;;;;;;;;9.00;6.00;;;;;8.81;88.03;98596.66;5089616;28;8850;-62
2021/12/24 04:39:54;;;;;;;;;8.50;7.00;;;;;8.82;88.26;98596.50;5088754;28;8857;-62
2021/12/24 04:51:09;;;;;;;;;11.50;9.25;;;;;8.81;88.45;98586.03;5089965;28;8848;-62
2021/12/24 05:02:26;;;;;;;;;15.50;14.50;;;;;8.80;88.54;98593.16;5091466;28;9650;-62
2021/12/24 05:05:01;;;;;;;;;9.50;9.00;;;;;8.81;88.71;98592.16;5094173;28;8846;-62
2021/12/24 05:10:15;;;;;;;;;10.75;10.50;;;;;8.81;88.45;98584.19;5052213;28;8846;-62
2021/12/24 05:12:42;;;;;;;;;13.50;11.50;;;;;8.82;88.92;98590.34;5094559;28;8852;-62
2021/12/24 05:15:11;;;;;;;;;11.00;9.50;;;;;8.83;88.20;98600.00;5094253;28;8850;-62
2021/12/24 05:17:52;;;;;;;;;13.75;12.50;;;;;8.82;88.54;98596.50;5094045;28;8957;-63
2021/12/24 05:23:06;;;;;;;;;13.50;13.50;;;;;8.84;88.41;98599.00;5094254;28;8872;-62
2021/12/24 05:25:34;;;;;;;;;7.50;7.50;;;;;8.84;88.28;98591.91;5093808;28;9659;-62
2021/12/24 05:28:01;;;;;;;;;8.75;6.75;;;;;8.84;88.79;98594.53;5094082;28;8826;-63
2021/12/24 05:30:29;;;;;;;;;12.75;12.00;;;;;8.85;88.59;98593.56;5093151;28;8854;-63
2021/12/24 05:32:57;;;;;;;;;10.50;9.50;;;;;8.86;88.29;98594.38;5093516;28;8853;-62
2021/12/24 05:35:24;;;;;;;;;18.50;15.50;;;;;8.87;88.41;98588.09;5094273;28;8854;-63
2021/12/24 05:37:52;;;;;;;;;15.25;15.25;;;;;8.87;88.77;98591.59;5093120;28;8941;-62
2021/12/24 05:40:20;;;;;;;;;14.50;13.00;;;;;8.87;88.31;98596.91;5092416;28;9557;-62
2021/12/24 05:42:48;;;;;;;;;10.00;9.50;;;;;8.89;88.41;98596.75;5092993;28;8857;-63
2021/12/24 05:45:16;;;;;;;;;14.50;10.25;;;;;8.88;88.55;98603.88;5092792;28;8842;-63
2021/12/24 05:47:43;;;;;;;;;11.50;11.00;;;;;8.89;88.60;98607.38;5092770;28;8922;-62
2021/12/24 05:50:11;;;;;;;;;12.00;11.25;;;;;8.89;88.67;98597.59;5092406;28;8838;-63
2021/12/24 05:52:39;;;;;;;;;14.00;13.25;;;;;8.89;88.27;98610.84;5092308;28;8840;-62
2021/12/24 05:55:07;;;;;;;;;18.50;15.75;;;;;8.89;88.66;98602.91;5092525;28;8850;-64
2021/12/24 05:57:34;;;;;;;;;13.50;12.00;;;;;8.90;88.84;98601.91;5092267;28;8856;-63
2021/12/24 06:00:05;;;;;;;;;14.50;14.50;;;;;8.91;88.67;98598.31;5093063;28;8841;-63
2021/12/24 06:02:33;;;;;;;;;9.25;9.25;;;;;8.90;88.65;98612.53;5093105;28;8857;-63
2021/12/24 06:05:01;;;;;;;;;11.50;10.50;;;;;8.90;88.82;98612.53;5091920;28;8862;-63
2021/12/24 06:07:28;;;;;;;;;12.25;9.00;;;;;8.88;88.85;98601.22;5092324;28;8838;-63
2021/12/24 06:09:56;;;;;;;;;8.50;8.50;;;;;8.89;88.41;98596.75;5091492;28;8842;-63
2021/12/24 06:12:24;;;;;;;;;8.75;8.25;;;;;8.90;88.99;98603.75;5092403;28;8850;-63
2021/12/24 06:14:54;;;;;;;;;14.00;12.50;;;;;8.88;88.79;98619.81;5091532;28;8837;-62
2021/12/24 06:17:23;;;;;;;;;14.75;13.50;;;;;8.88;88.64;98619.00;5091137;28;8972;-63
2021/12/24 06:19:51;;;;;;;;;9.25;6.50;;;;;8.89;88.37;98628.63;5091932;28;8880;-63
2021/12/24 06:22:19;;;;;;;;;15.75;14.75;;;;;8.87;88.50;98618.13;5091746;28;8979;-63
2021/12/24 06:24:46;;;;;;;;;13.00;12.00;;;;;8.89;88.79;98629.44;5092460;28;9483;-62
2021/12/24 06:27:14;;;;;;;;;12.25;11.50;;;;;8.88;88.51;98627.78;5092239;28;8822;-62
2021/12/24 06:29:42;;;;;;;;;15.00;11.50;;;;;8.88;88.94;98617.16;5090585;28;8850;-62
2021/12/24 06:32:10;;;;;;;;;14.00;12.75;;;;;8.88;88.99;98629.59;5090811;28;8838;-62
2021/12/24 06:34:38;;;;;;;;;10.00;9.25;;;;;8.89;88.90;98625.97;5091137;28;8850;-62
2021/12/24 06:37:05;;;;;;;;;10.75;9.50;;;;;8.90;88.83;98630.28;5091468;28;8868;-62
2021/12/24 06:39:33;;;;;;;;;9.50;9.00;;;;;8.90;88.88;98639.06;5089854;28;9739;-63
2021/12/24 06:42:01;;;;;;;;;13.00;12.50;;;;;8.93;88.81;98633.50;5091116;28;8842;-62
2021/12/24 06:44:28;;;;;;;;;14.50;10.50;;;;;8.95;88.52;98628.06;5091796;28;8857;-62
2021/12/24 06:46:56;;;;;;;;;16.00;14.75;;;;;8.98;88.36;98641.03;5090202;28;8838;-62
2021/12/24 06:49:24;;;;;;;;;5.25;2.50;;;;;9.00;88.38;98639.91;5090244;28;8846;-62
2021/12/24 06:51:52;;;;;;;;;13.50;12.25;;;;;9.04;88.29;98635.97;5089939;28;8842;-62
2021/12/24 06:54:20;;;;;;;;;13.00;12.00;;;;;9.06;88.35;98631.38;5091143;28;8857;-63
2021/12/24 06:56:47;;;;;;;;;19.25;16.00;;;;;9.07;87.92;98635.69;5090825;28;8846;-62
2021/12/24 06:59:15;;;;;;;;;13.67;8.67;;;;;9.09;88.16;98639.03;5091050;28;8843;-63
2021/12/24 07:01:43;;;;;;;;;13.00;13.00;;;;;9.10;87.80;98640.69;5091173;28;8838;-62
2021/12/24 07:04:11;;;;;;;;;19.25;15.25;;;;;9.11;87.75;98637.06;5091403;28;8858;-63
2021/12/24 07:06:45;;;;;;;;;18.25;15.00;;;;;9.11;87.96;98636.25;5091243;28;8857;-62
2021/12/24 07:09:13;;;;;;;;;11.00;9.50;;;;;9.09;88.39;98639.03;5088907;28;8842;-63
2021/12/24 07:11:41;;;;;;;;;11.00;10.00;;;;;9.07;88.14;98635.69;5090966;28;8834;-62
2021/12/24 07:14:09;;;;;;;;;12.00;10.50;;;;;9.10;88.17;98647.81;5090462;28;8867;-62
2021/12/24 07:16:37;;;;;;;;;15.00;13.50;;;;;9.10;88.28;98643.34;5090157;28;8842;-62
2021/12/24 07:19:05;;;;;;;;;19.00;15.50;;;;;9.08;88.26;98636.50;5090218;28;8849;-63
2021/12/24 07:21:35;;;;;;;;;6.00;3.75;;;;;9.08;88.10;98636.50;5089219;28;8868;-62
2021/12/24 07:24:02;;;;;;;;;11.00;9.50;;;;;9.09;88.11;98636.38;5090042;28;8960;-62
2021/12/24 07:26:30;;;;;;;;;14.25;14.00;;;;;9.06;87.86;98636.69;5088595;28;8852;-63
2021/12/24 07:28:58;;;;;;;;;5.50;4.75;;;;;9.05;87.86;98634.97;5089952;28;8845;-63
2021/12/24 07:31:26;;;;;;;;;9.25;7.50;;;;;9.08;88.23;98647.13;5090478;28;9518;-62
2021/12/24 07:33:53;;;;;;;;;12.75;12.50;;;;;9.08;87.62;98647.13;5090275;28;8842;-63
2021/12/24 07:36:21;;;;;;;;;6.50;6.50;;;;;9.08;88.20;98647.97;5090714;28;9542;-63
2021/12/24 07:38:49;;;;;;;;;7.50;7.00;;;;;9.09;87.82;98652.31;5090919;28;8870;-62
2021/12/24 07:41:16;;;;;;;;;12.75;12.75;;;;;9.10;87.79;98661.94;5091460;28;8860;-62
2021/12/24 07:43:44;;;;;;;;;13.00;12.00;;;;;9.11;87.83;98660.97;5091595;28;8841;-62
2021/12/24 07:46:12;;;;;;;;;12.50;10.25;;;;;9.09;88.09;98660.28;5088780;28;8842;-63
2021/12/24 07:48:45;;;;;;;;;14.75;12.75;;;;;9.06;87.82;98662.38;5089422;28;8830;-63
2021/12/24 07:54:00;;;;;;;;;9.50;7.50;;;;;9.01;88.08;98669.94;5089302;28;8842;-63
2021/12/24 07:56:28;;;;;;;;;12.25;11.50;;;;;8.98;88.23;98665.75;5089365;28;8837;-63
2021/12/24 07:58:55;;;;;;;;;16.00;15.00;;;;;8.97;87.95;98661.41;5090014;28;8842;-64
2021/12/24 08:01:23;;;;;;;;;13.00;11.75;;;;;9.01;88.32;98667.28;5088712;28;9137;-63
2021/12/24 08:03:51;;;;;;;;;12.50;12.25;;;;;9.03;88.14;98658.19;5089275;28;8849;-62
2021/12/24 08:06:19;;;;;;;;;4.00;3.75;;;;;9.05;87.95;98658.06;5087983;28;8873;-63
2021/12/24 08:08:47;;;;;;;;;7.50;6.00;;;;;9.06;88.06;98657.91;5088576;28;8900;-62
2021/12/24 08:11:14;;;;;;;;;2.00;1.00;;;;;9.08;87.74;98663.91;5088880;28;9561;-62
2021/12/24 08:13:42;;;;;;;;;12.75;12.25;;;;;9.09;87.28;98662.06;5089241;28;8842;-63
2021/12/24 08:16:10;;;;;;;;;14.00;11.50;;;;;9.05;88.05;98664.19;5086804;28;8860;-62
2021/12/24 08:18:38;;;;;;;;;8.50;8.00;;;;;9.00;88.28;98645.22;5089005;28;8876;-62
2021/12/24 08:21:05;;;;;;;;;13.00;11.00;;;;;8.97;88.19;98645.47;5087138;28;8911;-63
2021/12/24 08:23:33;;;;;;;;;11.25;9.25;;;;;8.96;88.00;98651.78;5087279;28;8965;-63
2021/12/24 08:26:01;;;;;;;;;13.00;11.50;;;;;8.95;88.16;98639.50;5089292;28;8864;-63
2021/12/24 08:28:29;;;;;;;;;9.25;8.00;;;;;8.96;88.20;98641.16;5088234;28;8824;-62
2021/12/24 08:30:56;;;;;;;;;13.50;10.50;;;;;9.00;88.34;98625.78;5089411;28;8853;-62
2021/12/24 08:33:27;;;;;;;;;19.50;16.00;;;;;9.03;87.97;98625.50;5088140;28;8872;-63
2021/12/24 08:35:55;;;;;;;;;23.00;18.50;;;;;9.04;88.04;98621.88;5087828;28;8877;-62
2021/12/24 08:38:23;;;;;;;;;14.00;12.75;;;;;9.07;88.08;98624.22;5090221;28;8876;-62
2021/12/24 08:40:50;;;;;;;;;18.00;14.00;;;;;9.09;87.48;98623.09;5090747;28;8846;-63
2021/12/24 08:43:18;;;;;;;;;13.00;12.00;;;;;9.11;87.91;98620.31;5090943;28;8883;-63
2021/12/24 08:45:46;;;;;;;;;10.00;10.00;;;;;9.11;87.97;98618.47;5089882;28;8846;-63
2021/12/24 08:48:13;;;;;;;;;13.75;10.75;;;;;9.10;87.94;98619.47;5088014;28;8853;-63
2021/12/24 08:50:41;;;;;;;;;15.25;13.00;;;;;9.11;87.78;98623.78;5091010;28;8837;-62
2021/12/24 08:53:09;;;;;;;;;12.75;10.00;;;;;9.10;87.73;98624.78;5089912;28;9547;-63
2021/12/24 08:55:37;;;;;;;;;16.75;14.00;;;;;9.12;87.90;98624.63;5089456;28;8848;-62
2021/12/24 08:58:05;;;;;;;;;16.75;13.00;;;;;9.12;87.62;98628.09;5090785;28;8861;-62
2021/12/24 09:00:32;;;;;;;;;10.00;9.75;;;;;9.12;87.26;98620.13;5091788;28;8862;-62
2021/12/24 09:03:01;;;;;;;;;18.75;15.75;;;;;9.14;87.74;98631.47;5091151;28;8861;-63
2021/12/24 09:05:29;;;;;;;;;9.00;6.00;;;;;9.15;87.31;98617.22;5089472;28;8874;-62
2021/12/24 09:07:57;;;;;;;;;13.00;10.50;;;;;9.17;87.40;98622.34;5088312;28;8969;-63
2021/12/24 09:10:25;;;;;;;;;9.00;8.00;;;;;9.17;87.93;98615.25;5088567;28;8924;-61
2021/12/24 09:12:54;;;;;;;;;10.50;10.00;;;;;9.18;87.13;98616.91;5091187;28;8876;-61
2021/12/24 09:15:23;;;;;;;;;12.50;11.25;;;;;9.18;87.23;98616.91;5088714;28;8872;-62
2021/12/24 09:17:50;;;;;;;;;9.00;9.00;;;;;9.19;87.33;98620.41;5087907;28;8841;-62
2021/12/24 09:20:21;;;;;;;;;10.25;9.00;;;;;9.21;86.96;98613.13;5089318;28;8825;-62
2021/12/24 09:22:48;;;;;;;;;7.50;7.00;;;;;9.23;87.07;98613.81;5086905;28;8973;-61
2021/12/24 09:25:16;;;;;;;;;8.00;6.75;;;;;9.24;86.83;98619.00;5086583;28;8896;-62
2021/12/24 09:27:44;;;;;;;;;11.00;9.50;;;;;9.28;87.34;98604.41;5086852;28;8854;-62
2021/12/24 09:30:12;;;;;;;;;4.00;3.50;;;;;9.31;86.93;98601.47;5082547;28;8845;-61
2021/12/24 09:32:39;;;;;;;;;7.50;7.50;;;;;9.36;87.01;98606.34;5087220;28;8862;-61
2021/12/24 09:35:08;;;;;;;;;12.25;10.00;;;;;9.39;86.86;98609.56;5088458;28;8992;-62
2021/12/24 09:37:36;;;;;;;;;14.25;12.50;;;;;9.42;86.92;98603.13;5088118;28;8980;-62
2021/12/24 09:40:04;;;;;;;;;7.25;6.50;;;;;9.43;87.10;98600.28;5087446;28;8908;-62
2021/12/24 09:42:32;;;;;;;;;12.00;9.75;;;;;9.45;86.68;98598.34;5088061;28;8857;-64
2021/12/24 09:44:59;;;;;;;;;15.25;12.25;;;;;9.47;86.18;98595.50;5088139;28;8857;-61
2021/12/24 09:47:27;;;;;;;;;10.50;10.00;;;;;9.46;86.30;98604.47;5087965;28;8858;-63
2021/12/24 09:49:55;;;;;;;;;8.00;7.00;;;;;9.44;86.67;98603.78;5085811;28;8840;-62
2021/12/24 09:52:23;;;;;;;;;13.25;12.00;;;;;9.42;86.58;98601.28;5087784;28;8981;-62
2021/12/24 09:54:51;;;;;;;;;11.00;9.75;;;;;9.39;86.70;98606.03;5085652;28;9795;-61
2021/12/24 09:57:18;;;;;;;;;13.75;12.25;;;;;9.34;87.06;98601.19;5087903;28;8850;-62
2021/12/24 09:59:46;;;;;;;;;9.25;9.25;;;;;9.33;86.79;98610.13;5086261;28;8858;-62
2021/12/24 10:02:18;;;;;;;;;5.25;5.25;;;;;9.31;87.24;98600.63;5081874;28;8950;-62
2021/12/24 10:04:45;;;;;;;;;10.50;8.75;;;;;9.29;87.07;98603.47;5087796;28;8876;-62
2021/12/24 10:07:13;;;;;;;;;6.50;6.00;;;;;9.28;86.68;98596.44;5085427;28;8873;-62
2021/12/24 10:09:41;;;;;;;;;12.25;10.50;;;;;9.27;86.89;98600.09;5087499;28;8842;-63
2021/12/24 10:12:09;;;;;;;;;9.50;8.50;;;;;9.27;86.65;98600.09;5087995;28;9823;-63
2021/12/24 10:14:37;;;;;;;;;14.00;11.50;;;;;9.28;86.90;98604.41;5086361;28;8850;-62
2021/12/24 10:17:05;;;;;;;;;10.00;10.00;;;;;9.29;86.96;98597.28;5086330;28;8871;-62
2021/12/24 10:19:33;;;;;;;;;9.25;7.00;;;;;9.31;86.75;98598.81;5087777;28;8846;-62
2021/12/24 10:22:01;;;;;;;;;9.75;4.00;;;;;9.35;86.80;98596.72;5086983;28;8850;-63
2021/12/24 10:24:28;;;;;;;;;9.25;9.25;;;;;9.39;86.52;98588.31;5087644;28;8857;-63
2021/12/24 10:26:56;;;;;;;;;6.25;6.00;;;;;9.47;86.15;98606.16;5086405;28;8834;-64
2021/12/24 10:29:24;;;;;;;;;9.50;8.50;;;;;9.52;86.00;98607.41;5088010;28;8858;-63
2021/12/24 10:31:52;;;;;;;;;10.50;9.25;;;;;9.57;86.05;98601.63;5086439;28;8934;-63
2021/12/24 10:34:19;;;;;;;;;12.50;11.75;;;;;9.62;86.05;98605.50;5087054;28;9865;-62
2021/12/24 10:36:47;;;;;;;;;6.25;5.50;;;;;9.67;86.04;98600.59;5086732;28;8966;-65
2021/12/24 10:39:15;;;;;;;;;8.00;7.00;;;;;9.69;86.00;98595.97;5084492;28;9681;-63
2021/12/24 10:41:43;;;;;;;;;3.25;3.25;;;;;9.72;85.58;98606.28;5085641;28;8900;-63
2021/12/24 10:44:10;;;;;;;;;10.25;10.25;;;;;9.72;85.88;98595.66;5085910;28;8878;-63
2021/12/24 10:46:38;;;;;;;;;8.00;7.00;;;;;9.73;85.58;98593.84;5085385;28;8900;-64
2021/12/24 10:49:14;;;;;;;;;10.50;10.50;;;;;9.73;85.90;98591.19;5083271;28;8915;-64
2021/12/24 10:51:54;;;;;;;;;13.00;11.75;;;;;9.75;85.81;98591.84;5085265;28;8872;-63
2021/12/24 10:54:25;;;;;;;;;11.00;9.50;;;;;9.76;85.74;98605.00;5085014;28;8853;-64
2021/12/24 10:56:55;;;;;;;;;10.75;10.25;;;;;9.75;85.51;98600.69;5086711;28;8841;-63
2021/12/24 10:59:23;;;;;;;;;8.00;7.00;;;;;9.72;85.72;98593.00;5087146;28;8850;-63
2021/12/24 11:01:51;;;;;;;;;11.50;9.75;;;;;9.70;85.60;98600.28;5083515;28;8870;-62
2021/12/24 11:04:18;;;;;;;;;14.00;13.50;;;;;9.68;85.66;98604.91;5083035;28;8846;-63
2021/12/24 11:06:51;;;;;;;;;3.00;3.00;;;;;9.66;85.94;98601.56;5084388;28;8845;-63
2021/12/24 11:09:18;;;;;;;;;14.50;12.00;;;;;9.64;85.61;98602.72;5084275;28;8860;-63
2021/12/24 11:11:47;;;;;;;;;9.75;9.25;;;;;9.61;85.94;98609.16;5082018;28;9569;-62
2021/12/24 11:14:15;;;;;;;;;11.50;11.00;;;;;9.57;85.87;98609.59;5084488;28;8868;-64
2021/12/24 11:16:45;;;;;;;;;7.50;6.00;;;;;9.49;86.28;98612.16;5082189;28;8850;-63
2021/12/24 11:19:12;;;;;;;;;3.00;2.50;;;;;9.35;86.21;98616.13;5082536;28;8850;-63
2021/12/24 11:21:41;;;;;;;;;9.75;7.50;;;;;9.23;85.96;98627.09;5080883;28;8858;-63
2021/12/24 11:24:08;;;;;;;;;9.25;8.00;;;;;9.13;86.75;98615.69;5083863;28;8854;-64
2021/12/24 11:26:50;;;;;;;;;13.50;12.00;;;;;9.05;86.74;98618.22;5083994;28;8846;-64
2021/12/24 11:29:17;;;;;;;;;9.25;6.25;;;;;8.98;86.74;98631.22;5083799;28;8986;-64
2021/12/24 11:31:45;;;;;;;;;9.25;7.50;;;;;8.93;86.88;98630.84;5082453;28;8849;-63
2021/12/24 11:34:13;;;;;;;;;10.50;10.00;;;;;8.89;87.22;98616.16;5081866;28;8930;-64
2021/12/24 11:36:41;;;;;;;;;12.00;12.00;;;;;8.86;86.83;98616.47;5083256;28;8885;-64
2021/12/24 11:39:08;;;;;;;;;8.00;7.50;;;;;8.87;87.42;98612.81;5082488;28;8861;-64
2021/12/24 11:41:37;;;;;;;;;12.00;10.50;;;;;8.87;87.06;98607.53;5076599;28;9563;-64
2021/12/24 11:44:07;;;;;;;;;17.25;13.75;;;;;8.88;87.12;98603.06;5072254;28;8974;-64
2021/12/24 11:46:35;;;;;;;;;8.75;8.25;;;;;8.88;87.44;98609.19;5081337;28;8970;-65
2021/12/24 11:49:03;;;;;;;;;6.75;5.25;;;;;8.89;87.46;98599.41;5081564;28;8931;-64
2021/12/24 11:51:32;;;;;;;;;12.25;12.00;;;;;8.90;87.06;98601.09;5087071;28;8833;-64
2021/12/24 11:53:59;;;;;;;;;13.00;12.00;;;;;8.88;87.70;98603.06;5083550;28;8968;-62
2021/12/24 11:56:27;;;;;;;;;13.00;10.50;;;;;8.87;87.27;98596.91;5084990;28;8867;-68
2021/12/24 11:58:54;;;;;;;;;6.00;6.00;;;;;8.86;87.46;98599.69;5085031;28;8856;-67
2021/12/24 12:01:23;;;;;;;;;9.25;7.50;;;;;8.86;87.62;98597.88;5085798;28;8842;-69
2021/12/24 12:03:52;;;;;;;;;10.00;9.25;;;;;8.84;87.55;98602.50;5082291;28;10046;-66
2021/12/24 12:06:19;;;;;;;;;16.00;12.50;;;;;8.84;87.42;98596.34;5084484;28;8866;-67
2021/12/24 12:08:47;;;;;;;;;15.50;12.00;;;;;8.82;87.75;98596.50;5081995;28;8858;-67
2021/12/24 12:11:15;;;;;;;;;10.00;9.75;;;;;8.82;87.62;98588.53;5083877;28;8848;-70
2021/12/24 12:13:43;;;;;;;;;10.00;10.00;;;;;8.83;87.46;98578.75;5089922;28;8849;-70
2021/12/24 12:16:10;;;;;;;;;10.50;9.00;;;;;8.89;87.11;98578.19;5088153;28;8860;-67
2021/12/24 12:18:45;;;;;;;;;7.25;6.50;;;;;8.95;87.41;98577.59;5088601;28;8960;-69
2021/12/24 12:21:13;;;;;;;;;8.25;6.50;;;;;9.00;87.05;98586.81;5088238;28;8869;-68
2021/12/24 12:23:46;;;;;;;;;9.00;7.50;;;;;9.03;87.28;98570.56;5089634;28;8848;-69
2021/12/24 12:26:13;;;;;;;;;5.00;3.50;;;;;9.07;86.64;98566.66;5089053;28;8854;-69
2021/12/24 12:28:41;;;;;;;;;7.00;6.75;;;;;9.11;86.78;98573.31;5089585;28;8866;-70
2021/12/24 12:31:12;;;;;;;;;6.75;6.00;;;;;9.16;86.83;98579.06;5088261;28;8826;-69
2021/12/24 12:33:41;;;;;;;;;8.50;8.00;;;;;9.19;86.64;98568.13;5089354;28;9260;-67
2021/12/24 12:36:09;;;;;;;;;2.75;1.50;;;;;9.23;86.68;98572.16;5089761;28;8870;-68
2021/12/24 12:38:38;;;;;;;;;6.50;6.00;;;;;9.25;86.54;98567.53;5089891;28;8934;-69
2021/12/24 12:41:06;;;;;;;;;9.00;7.00;;;;;9.28;86.69;98580.50;5088647;28;9486;-70
2021/12/24 12:43:37;;;;;;;;;7.25;6.25;;;;;9.28;86.53;98569.88;5087981;28;8850;-68
2021/12/24 12:46:05;;;;;;;;;6.25;6.00;;;;;9.30;86.29;98573.25;5089825;28;9491;-67
2021/12/24 12:48:33;;;;;;;;;3.50;3.25;;;;;9.32;85.95;98576.59;5087514;28;8861;-70
2021/12/24 12:51:01;;;;;;;;;11.50;9.75;;;;;9.34;85.97;98566.66;5091410;28;9670;-68
2021/12/24 12:53:29;;;;;;;;;8.50;7.00;;;;;9.39;86.07;98567.03;5086982;28;9588;-68
2021/12/24 12:55:57;;;;;;;;;9.25;7.00;;;;;9.40;86.40;98563.41;5087994;28;8977;-69
2021/12/24 12:58:25;;;;;;;;;9.00;8.00;;;;;9.42;85.70;98558.75;5088214;28;8910;-67
2021/12/24 13:00:52;;;;;;;;;9.50;7.00;;;;;9.43;86.08;98568.41;5087251;28;8877;-69
2021/12/24 13:03:20;;;;;;;;;10.00;8.00;;;;;9.42;85.75;98568.56;5086142;28;8846;-68
2021/12/24 13:05:48;;;;;;;;;9.50;7.50;;;;;9.41;86.37;98561.59;5089272;28;8911;-68
2021/12/24 13:08:16;;;;;;;;;13.00;11.50;;;;;9.40;85.85;98566.06;5089406;28;8876;-67
2021/12/24 13:10:43;;;;;;;;;10.00;9.00;;;;;9.39;85.91;98563.53;5088621;28;8834;-70
2021/12/24 13:13:11;;;;;;;;;6.25;6.25;;;;;9.37;85.94;98557.56;5087874;28;8853;-69